Time;durP1;ratioP1;P1;durP2;ratioP2;P2;SDS_P1;SDS_P2;PMS_P1;PMS_P2;Temp;Humidity;BMP_temperature;BMP_pressure;BME280_temperature;BME280_humidity;BME280_pressure;Samples;Min_cycle;Max_cycle;Signal;HPM_P1;HPM_P2
2021/07/01 00:00:47;;;;;;;15.75;11.40;;;;;;;;;;5062447;28;20108;-77
2021/07/01 00:03:31;;;;;;;14.95;11.07;;;;;;;;;;5062365;28;20115;-77
2021/07/01 00:06:17;;;;;;;14.70;11.18;;;;;;;;;;5062715;28;20032;-76
2021/07/01 00:09:02;;;;;;;15.30;11.25;;;;;;;;;;5050652;28;20510;-76
2021/07/01 00:11:47;;;;;;;14.75;10.80;;;;;;;;;;5066174;28;20753;-77
2021/07/01 00:14:31;;;;;;;17.50;11.52;;;;;;;;;;5050871;28;20112;-76
2021/07/01 00:17:16;;;;;;;13.80;11.00;;;;;;;;;;5072279;28;20483;-76
2021/07/01 00:20:00;;;;;;;12.95;10.57;;;;;;;;;;5049449;28;20039;-77
2021/07/01 00:22:45;;;;;;;14.95;10.75;;;;;;;;;;5049358;28;20664;-76
2021/07/01 00:25:29;;;;;;;14.13;10.82;;;;;;;;;;5064463;28;20032;-76
2021/07/01 00:28:14;;;;;;;15.35;11.07;;;;;;;;;;5062479;28;20055;-77
2021/07/01 00:30:59;;;;;;;14.88;10.73;;;;;;;;;;5064246;28;20056;-77
2021/07/01 00:33:44;;;;;;;15.40;10.27;;;;;;;;;;5064056;28;20098;-77
2021/07/01 00:36:31;;;;;;;13.85;10.52;;;;;;;;;;5064629;28;20044;-77
2021/07/01 00:39:15;;;;;;;13.68;10.50;;;;;;;;;;5065559;28;20079;-76
2021/07/01 00:42:00;;;;;;;14.90;10.48;;;;;;;;;;5043160;28;20545;-76
2021/07/01 00:44:44;;;;;;;14.77;10.98;;;;;;;;;;5055259;28;20402;-77
2021/07/01 00:47:29;;;;;;;15.80;10.65;;;;;;;;;;5064865;28;20541;-76
2021/07/01 00:50:14;;;;;;;14.65;10.55;;;;;;;;;;5062222;28;20086;-77
2021/07/01 00:52:58;;;;;;;13.95;10.85;;;;;;;;;;5063919;28;20048;-77
2021/07/01 00:55:43;;;;;;;17.15;10.23;;;;;;;;;;5053576;28;20457;-77
2021/07/01 00:58:28;;;;;;;14.32;10.57;;;;;;;;;;5040262;28;20411;-77
2021/07/01 01:01:12;;;;;;;15.65;10.98;;;;;;;;;;5059318;28;20044;-77
2021/07/01 01:03:57;;;;;;;13.55;9.45;;;;;;;;;;5073052;28;20069;-77
2021/07/01 01:06:41;;;;;;;14.45;10.35;;;;;;;;;;5064247;28;20067;-76
2021/07/01 01:09:25;;;;;;;13.07;10.10;;;;;;;;;;5063279;28;20093;-77
2021/07/01 01:12:10;;;;;;;13.63;10.07;;;;;;;;;;5057820;28;20047;-77
2021/07/01 01:14:54;;;;;;;12.52;9.90;;;;;;;;;;5069359;28;20043;-77
2021/07/01 01:17:39;;;;;;;15.27;9.85;;;;;;;;;;5063749;28;20051;-76
2021/07/01 01:20:24;;;;;;;13.18;9.80;;;;;;;;;;5061404;28;20047;-80
2021/07/01 01:23:09;;;;;;;12.05;9.65;;;;;;;;;;5062796;28;20183;-77
2021/07/01 01:25:58;;;;;;;14.18;10.25;;;;;;;;;;5061475;28;20036;-76
2021/07/01 01:28:42;;;;;;;12.60;9.50;;;;;;;;;;5058968;28;20043;-77
2021/07/01 01:31:28;;;;;;;14.77;9.73;;;;;;;;;;5061605;28;20786;-76
2021/07/01 01:34:12;;;;;;;11.65;9.45;;;;;;;;;;5061796;28;20113;-76
2021/07/01 01:36:57;;;;;;;12.52;9.90;;;;;;;;;;5058459;28;20059;-77
2021/07/01 01:39:48;;;;;;;12.10;9.63;;;;;;;;;;5062084;28;20142;-76
2021/07/01 01:42:33;;;;;;;12.50;9.82;;;;;;;;;;5061451;28;20114;-77
2021/07/01 01:45:17;;;;;;;12.38;9.10;;;;;;;;;;5060495;28;20541;-77
2021/07/01 01:48:02;;;;;;;13.05;9.93;;;;;;;;;;5063835;28;20112;-76
2021/07/01 01:50:47;;;;;;;12.32;9.70;;;;;;;;;;5065522;28;20053;-76
2021/07/01 01:53:31;;;;;;;12.65;9.80;;;;;;;;;;5063431;28;20051;-77
2021/07/01 01:56:19;;;;;;;11.38;9.13;;;;;;;;;;5063847;28;20708;-77
2021/07/01 01:59:07;;;;;;;13.15;9.15;;;;;;;;;;5059341;28;20050;-77
2021/07/01 02:01:52;;;;;;;13.25;9.50;;;;;;;;;;5048712;28;20123;-77
2021/07/01 02:04:36;;;;;;;14.50;9.40;;;;;;;;;;5063540;28;20112;-77
2021/07/01 02:07:21;;;;;;;10.95;9.15;;;;;;;;;;5064976;28;20066;-77
2021/07/01 02:10:06;;;;;;;13.95;9.48;;;;;;;;;;5046960;28;20644;-77
2021/07/01 02:12:51;;;;;;;12.05;9.48;;;;;;;;;;5062945;28;20058;-76
2021/07/01 02:15:36;;;;;;;11.65;9.27;;;;;;;;;;5061802;28;20100;-76
2021/07/01 02:18:20;;;;;;;13.18;9.20;;;;;;;;;;5063001;28;20395;-77
2021/07/01 02:21:05;;;;;;;14.88;9.95;;;;;;;;;;5049831;28;20105;-76
2021/07/01 02:23:50;;;;;;;12.65;9.45;;;;;;;;;;5063890;28;20445;-77
2021/07/01 02:26:34;;;;;;;12.65;8.98;;;;;;;;;;5065897;28;20047;-77
2021/07/01 02:29:19;;;;;;;11.38;8.80;;;;;;;;;;5047073;28;20455;-76
2021/07/01 02:32:04;;;;;;;13.80;9.65;;;;;;;;;;5064807;28;20040;-77
2021/07/01 02:34:49;;;;;;;11.45;9.43;;;;;;;;;;5063468;28;20094;-77
2021/07/01 02:37:34;;;;;;;12.73;9.18;;;;;;;;;;5055395;28;20241;-77
2021/07/01 02:40:18;;;;;;;14.18;9.38;;;;;;;;;;5066298;28;20490;-77
2021/07/01 02:43:03;;;;;;;12.35;9.70;;;;;;;;;;5050648;28;20540;-77
2021/07/01 02:45:47;;;;;;;12.73;9.23;;;;;;;;;;5050770;28;20119;-76
2021/07/01 02:48:31;;;;;;;13.35;9.50;;;;;;;;;;5064940;28;20486;-77
2021/07/01 02:51:16;;;;;;;12.10;9.35;;;;;;;;;;5063719;28;20044;-77
2021/07/01 02:54:00;;;;;;;12.55;8.85;;;;;;;;;;5064584;28;20078;-77
2021/07/01 02:56:45;;;;;;;11.77;9.30;;;;;;;;;;5045240;28;20119;-77
2021/07/01 02:59:30;;;;;;;12.52;9.02;;;;;;;;;;5048712;28;20399;-77
2021/07/01 03:02:14;;;;;;;14.00;9.68;;;;;;;;;;5050754;28;20060;-77
2021/07/01 03:04:58;;;;;;;13.55;9.23;;;;;;;;;;5064664;28;20040;-77
2021/07/01 03:07:43;;;;;;;12.63;8.98;;;;;;;;;;5065970;28;20075;-77
2021/07/01 03:10:28;;;;;;;12.00;8.73;;;;;;;;;;5062344;28;20337;-77
2021/07/01 03:13:12;;;;;;;13.45;8.95;;;;;;;;;;5068279;28;20093;-77
2021/07/01 03:15:57;;;;;;;11.93;9.20;;;;;;;;;;5051799;28;20048;-76
2021/07/01 03:18:41;;;;;;;12.88;9.43;;;;;;;;;;5069737;28;20078;-77
2021/07/01 03:21:26;;;;;;;11.10;8.57;;;;;;;;;;5068143;28;20116;-77
2021/07/01 03:24:10;;;;;;;11.70;8.55;;;;;;;;;;5069454;28;20102;-77
2021/07/01 03:26:55;;;;;;;12.35;8.98;;;;;;;;;;5068686;28;20062;-77
2021/07/01 03:29:40;;;;;;;12.43;9.40;;;;;;;;;;5068137;28;20113;-78
2021/07/01 03:32:24;;;;;;;11.45;8.45;;;;;;;;;;5038458;28;20556;-77
2021/07/01 03:35:09;;;;;;;11.77;8.70;;;;;;;;;;5065247;28;20040;-77
2021/07/01 03:37:54;;;;;;;13.13;9.57;;;;;;;;;;5050231;28;20526;-76
2021/07/01 03:40:38;;;;;;;13.25;9.63;;;;;;;;;;5068361;28;20043;-77
2021/07/01 03:43:23;;;;;;;12.65;9.40;;;;;;;;;;5069199;28;20051;-76
2021/07/01 03:46:08;;;;;;;12.45;8.95;;;;;;;;;;5067749;28;20472;-77
2021/07/01 03:48:52;;;;;;;13.27;9.40;;;;;;;;;;5069466;28;20561;-76
2021/07/01 03:51:37;;;;;;;13.45;9.77;;;;;;;;;;5068883;28;20047;-77
2021/07/01 03:54:22;;;;;;;12.10;9.02;;;;;;;;;;5067841;28;20034;-77
2021/07/01 03:57:06;;;;;;;13.82;8.98;;;;;;;;;;5067506;28;20059;-77
2021/07/01 03:59:51;;;;;;;12.43;9.15;;;;;;;;;;5066522;28;20039;-77
2021/07/01 04:02:35;;;;;;;13.13;9.10;;;;;;;;;;5068005;28;20067;-77
2021/07/01 04:05:20;;;;;;;14.98;10.35;;;;;;;;;;5067848;28;20087;-77
2021/07/01 04:08:05;;;;;;;14.02;9.57;;;;;;;;;;5068851;28;20043;-77
2021/07/01 04:10:50;;;;;;;12.57;8.93;;;;;;;;;;5067664;28;20098;-77
2021/07/01 04:13:34;;;;;;;13.95;9.57;;;;;;;;;;5052505;28;20094;-76
2021/07/01 04:16:19;;;;;;;13.65;9.27;;;;;;;;;;5068144;28;20091;-77
2021/07/01 04:19:03;;;;;;;14.65;10.05;;;;;;;;;;5068705;28;20377;-76
2021/07/01 04:21:48;;;;;;;15.70;10.02;;;;;;;;;;5068098;28;20047;-76
2021/07/01 04:24:33;;;;;;;15.23;9.63;;;;;;;;;;5066212;28;20522;-77
2021/07/01 04:27:17;;;;;;;13.40;9.85;;;;;;;;;;5068620;28;20403;-77
2021/07/01 04:30:02;;;;;;;16.13;10.25;;;;;;;;;;5074683;28;20035;-76
2021/07/01 04:32:47;;;;;;;13.98;9.45;;;;;;;;;;5068525;28;20124;-77
2021/07/01 04:35:31;;;;;;;15.50;10.48;;;;;;;;;;5067059;28;20702;-77
2021/07/01 04:38:16;;;;;;;13.40;10.05;;;;;;;;;;5067273;28;20459;-76
2021/07/01 04:41:01;;;;;;;15.13;9.82;;;;;;;;;;5068009;28;20117;-76
2021/07/01 04:43:45;;;;;;;15.25;10.13;;;;;;;;;;5066617;28;20043;-76
2021/07/01 04:46:30;;;;;;;15.10;9.88;;;;;;;;;;5059708;28;20396;-77
2021/07/01 04:49:15;;;;;;;15.52;10.10;;;;;;;;;;5048394;28;20478;-77
2021/07/01 04:51:59;;;;;;;13.93;9.82;;;;;;;;;;5060016;28;20096;-77
2021/07/01 04:54:44;;;;;;;14.70;10.07;;;;;;;;;;5049483;28;20050;-77
2021/07/01 04:57:29;;;;;;;15.57;10.32;;;;;;;;;;5065179;28;20092;-77
2021/07/01 05:00:14;;;;;;;16.35;10.52;;;;;;;;;;5050303;28;20031;-77
2021/07/01 05:02:58;;;;;;;15.52;10.80;;;;;;;;;;5064411;28;20043;-76
2021/07/01 05:05:43;;;;;;;16.90;10.40;;;;;;;;;;5064077;28;20110;-77
2021/07/01 05:08:27;;;;;;;16.17;10.27;;;;;;;;;;5049849;28;20086;-77
2021/07/01 05:11:12;;;;;;;16.77;10.82;;;;;;;;;;5064249;28;20669;-79
2021/07/01 05:13:57;;;;;;;16.77;10.75;;;;;;;;;;5050576;28;20105;-77
2021/07/01 05:16:41;;;;;;;16.27;10.27;;;;;;;;;;5046285;28;20070;-77
2021/07/01 05:19:26;;;;;;;17.80;10.88;;;;;;;;;;5063928;28;20086;-77
2021/07/01 05:22:10;;;;;;;15.27;10.18;;;;;;;;;;5064716;28;20829;-76
2021/07/01 05:24:55;;;;;;;16.20;10.73;;;;;;;;;;5061419;28;20055;-77
2021/07/01 05:27:39;;;;;;;15.18;10.15;;;;;;;;;;5062489;28;20089;-77
2021/07/01 05:30:24;;;;;;;17.13;10.23;;;;;;;;;;5063281;28;20525;-76
2021/07/01 05:33:09;;;;;;;18.63;10.80;;;;;;;;;;5058427;28;20544;-77
2021/07/01 05:35:54;;;;;;;20.42;11.23;;;;;;;;;;5043486;28;20392;-77
2021/07/01 05:38:38;;;;;;;15.52;10.20;;;;;;;;;;5060580;28;20086;-77
2021/07/01 05:41:22;;;;;;;18.17;11.35;;;;;;;;;;5062601;28;20044;-77
2021/07/01 05:44:07;;;;;;;17.95;10.93;;;;;;;;;;5064156;28;20047;-77
2021/07/01 05:46:52;;;;;;;17.27;10.93;;;;;;;;;;5040501;28;20097;-77
2021/07/01 05:49:36;;;;;;;19.00;11.45;;;;;;;;;;5063190;28;20100;-77
2021/07/01 05:52:26;;;;;;;19.13;11.38;;;;;;;;;;5049562;28;20036;-77
2021/07/01 05:55:12;;;;;;;16.98;11.15;;;;;;;;;;5063060;28;20093;-77
2021/07/01 05:57:56;;;;;;;18.40;11.18;;;;;;;;;;5062214;28;20544;-77
2021/07/01 06:00:41;;;;;;;17.92;10.80;;;;;;;;;;5064171;28;20040;-77
2021/07/01 06:03:26;;;;;;;17.88;10.90;;;;;;;;;;5050407;28;20218;-77
2021/07/01 06:06:13;;;;;;;16.52;11.02;;;;;;;;;;5063194;28;20113;-77
2021/07/01 06:08:58;;;;;;;18.33;11.27;;;;;;;;;;5048497;28;20067;-77
2021/07/01 06:11:43;;;;;;;18.33;11.10;;;;;;;;;;5053986;28;20113;-77
2021/07/01 06:14:28;;;;;;;17.15;10.52;;;;;;;;;;5065125;28;20165;-77
2021/07/01 06:17:13;;;;;;;17.10;10.75;;;;;;;;;;5063432;28;20082;-77
2021/07/01 06:19:58;;;;;;;18.52;11.68;;;;;;;;;;5061222;28;20204;-77
2021/07/01 06:22:42;;;;;;;18.70;11.45;;;;;;;;;;5060747;28;20098;-77
2021/07/01 06:25:27;;;;;;;17.50;11.07;;;;;;;;;;5064597;28;20040;-77
2021/07/01 06:28:13;;;;;;;19.50;11.18;;;;;;;;;;5062944;28;20040;-77
2021/07/01 06:30:57;;;;;;;19.10;11.48;;;;;;;;;;5046692;28;20039;-77
2021/07/01 06:33:44;;;;;;;17.50;11.23;;;;;;;;;;5050799;28;20054;-78
2021/07/01 06:36:29;;;;;;;21.20;12.07;;;;;;;;;;5062792;28;20055;-77
2021/07/01 06:39:14;;;;;;;20.15;11.27;;;;;;;;;;5047968;28;20490;-78
2021/07/01 06:41:58;;;;;;;17.75;11.38;;;;;;;;;;5062362;28;20456;-76
2021/07/01 06:44:43;;;;;;;19.83;10.95;;;;;;;;;;5063582;28;20075;-77
2021/07/01 06:47:28;;;;;;;16.48;11.32;;;;;;;;;;5066650;28;20214;-77
2021/07/01 06:50:14;;;;;;;19.15;11.77;;;;;;;;;;5066384;28;20084;-78
2021/07/01 06:52:59;;;;;;;15.63;10.43;;;;;;;;;;5067084;28;20047;-78
2021/07/01 06:55:44;;;;;;;16.80;11.18;;;;;;;;;;5066142;28;20055;-77
2021/07/01 06:58:29;;;;;;;17.73;10.85;;;;;;;;;;5067323;28;20059;-78
2021/07/01 07:01:14;;;;;;;17.50;10.80;;;;;;;;;;5065639;28;20486;-77
2021/07/01 07:04:00;;;;;;;16.80;11.20;;;;;;;;;;5066498;28;20051;-78
2021/07/01 07:06:47;;;;;;;19.13;11.85;;;;;;;;;;5060190;28;20071;-77
2021/07/01 07:09:32;;;;;;;18.52;11.57;;;;;;;;;;5051275;28;20138;-77
2021/07/01 07:12:17;;;;;;;18.98;11.05;;;;;;;;;;5052074;28;20106;-77
2021/07/01 07:15:02;;;;;;;18.05;11.52;;;;;;;;;;5066389;28;20585;-77
2021/07/01 07:17:48;;;;;;;18.77;11.43;;;;;;;;;;5047807;28;20476;-77
2021/07/01 07:20:33;;;;;;;17.73;11.82;;;;;;;;;;5047194;28;20203;-77
2021/07/01 07:23:19;;;;;;;18.80;11.80;;;;;;;;;;5064314;28;20047;-76
2021/07/01 07:26:08;;;;;;;18.48;11.02;;;;;;;;;;5066038;28;20074;-77
2021/07/01 07:28:56;;;;;;;18.05;11.18;;;;;;;;;;5065269;28;20466;-77
2021/07/01 07:31:41;;;;;;;17.75;11.25;;;;;;;;;;5065138;28;20870;-77
2021/07/01 07:34:25;;;;;;;19.08;11.82;;;;;;;;;;5066381;28;20039;-77
2021/07/01 07:37:10;;;;;;;20.48;11.98;;;;;;;;;;5063589;28;20492;-77
2021/07/01 07:39:54;;;;;;;19.20;10.80;;;;;;;;;;5044896;28;20130;-76
2021/07/01 07:42:39;;;;;;;20.75;11.60;;;;;;;;;;5062572;28;20142;-77
2021/07/01 07:45:24;;;;;;;17.35;12.02;;;;;;;;;;5065053;28;20052;-77
2021/07/01 07:48:08;;;;;;;19.17;12.48;;;;;;;;;;5065367;28;20113;-77
2021/07/01 07:50:54;;;;;;;17.75;11.43;;;;;;;;;;5065304;28;20055;-77
2021/07/01 07:53:40;;;;;;;17.63;11.38;;;;;;;;;;5066739;28;20090;-76
2021/07/01 07:56:27;;;;;;;19.17;11.85;;;;;;;;;;5049759;28;20051;-77
2021/07/01 07:59:11;;;;;;;18.38;10.95;;;;;;;;;;5045406;28;20053;-77
2021/07/01 08:02:00;;;;;;;19.15;11.35;;;;;;;;;;5060796;28;20112;-77
2021/07/01 08:04:45;;;;;;;18.35;11.93;;;;;;;;;;5065302;28;20039;-78
2021/07/01 08:07:30;;;;;;;17.42;11.85;;;;;;;;;;5064885;28;20055;-76
2021/07/01 08:10:16;;;;;;;17.98;11.75;;;;;;;;;;5064774;28;20125;-77
2021/07/01 08:13:05;;;;;;;19.13;11.95;;;;;;;;;;5051013;28;20097;-77
2021/07/01 08:15:49;;;;;;;18.65;11.95;;;;;;;;;;5064633;28;20044;-77
2021/07/01 08:18:39;;;;;;;18.88;11.85;;;;;;;;;;5049768;28;20831;-77
2021/07/01 08:21:24;;;;;;;19.85;12.38;;;;;;;;;;5064877;28;20105;-77
2021/07/01 08:24:09;;;;;;;17.08;11.15;;;;;;;;;;5064877;28;20127;-77
2021/07/01 08:26:53;;;;;;;18.92;11.52;;;;;;;;;;5060324;28;20027;-77
2021/07/01 08:29:38;;;;;;;18.67;11.75;;;;;;;;;;5063391;28;20052;-77
2021/07/01 08:32:22;;;;;;;18.98;11.25;;;;;;;;;;5052883;28;20105;-77
2021/07/01 08:35:07;;;;;;;17.63;11.90;;;;;;;;;;5064829;28;20109;-77
2021/07/01 08:37:53;;;;;;;20.23;12.05;;;;;;;;;;5064191;28;20446;-77
2021/07/01 08:40:38;;;;;;;19.08;11.38;;;;;;;;;;5064439;28;20043;-77
2021/07/01 08:43:23;;;;;;;16.00;10.73;;;;;;;;;;5044773;28;20048;-77
2021/07/01 08:46:14;;;;;;;16.73;10.35;;;;;;;;;;5048173;28;20043;-77
2021/07/01 08:48:59;;;;;;;17.98;11.93;;;;;;;;;;5052356;28;20063;-77
2021/07/01 08:51:45;;;;;;;15.98;10.73;;;;;;;;;;5061278;28;20111;-77
2021/07/01 08:54:34;;;;;;;19.15;12.30;;;;;;;;;;5050958;28;20055;-77
2021/07/01 08:57:19;;;;;;;16.98;10.82;;;;;;;;;;5054491;28;20055;-77
2021/07/01 09:00:10;;;;;;;17.55;11.32;;;;;;;;;;5058814;28;20147;-77
2021/07/01 09:03:05;;;;;;;17.88;11.60;;;;;;;;;;5063102;28;20047;-77
2021/07/01 09:05:50;;;;;;;17.20;11.45;;;;;;;;;;5045611;28;20060;-77
2021/07/01 09:08:34;;;;;;;17.15;11.35;;;;;;;;;;5063624;28;20079;-78
2021/07/01 09:11:20;;;;;;;19.63;12.27;;;;;;;;;;5055092;28;20105;-76
2021/07/01 09:14:06;;;;;;;17.65;11.70;;;;;;;;;;5063604;28;20114;-77
2021/07/01 09:16:50;;;;;;;18.13;12.23;;;;;;;;;;5063120;28;20051;-77
2021/07/01 09:19:35;;;;;;;18.80;11.75;;;;;;;;;;5063232;28;20139;-76
2021/07/01 09:22:20;;;;;;;18.00;11.52;;;;;;;;;;5062805;28;20090;-77
2021/07/01 09:25:04;;;;;;;17.52;11.85;;;;;;;;;;5063665;28;20127;-77
2021/07/01 09:27:50;;;;;;;16.98;11.07;;;;;;;;;;5063423;28;20108;-78
2021/07/01 09:30:35;;;;;;;19.27;11.73;;;;;;;;;;5062282;28;20098;-77
2021/07/01 09:33:19;;;;;;;16.48;11.45;;;;;;;;;;5046231;28;20055;-78
2021/07/01 09:36:04;;;;;;;17.45;11.13;;;;;;;;;;5051324;28;20047;-77
2021/07/01 09:38:49;;;;;;;16.38;11.50;;;;;;;;;;5057430;28;20780;-77
2021/07/01 09:41:33;;;;;;;17.23;11.05;;;;;;;;;;5059055;28;20072;-81
2021/07/01 09:44:18;;;;;;;15.23;10.32;;;;;;;;;;5061567;28;20042;-81
2021/07/01 09:47:07;;;;;;;16.52;10.55;;;;;;;;;;5074125;28;20050;-77
2021/07/01 09:49:52;;;;;;;14.90;10.52;;;;;;;;;;5055243;28;20039;-80
2021/07/01 09:52:41;;;;;;;16.25;11.32;;;;;;;;;;5054405;28;20042;-76
2021/07/01 09:55:26;;;;;;;17.08;10.90;;;;;;;;;;5075520;28;21621;-77
2021/07/01 09:58:11;;;;;;;17.00;10.95;;;;;;;;;;5056463;28;20513;-78
2021/07/01 10:00:56;;;;;;;17.73;10.50;;;;;;;;;;5063576;28;20106;-78
2021/07/01 10:03:53;;;;;;;16.13;10.85;;;;;;;;;;5048320;28;20047;-78
2021/07/01 10:06:38;;;;;;;15.80;10.50;;;;;;;;;;5064079;28;20043;-77
2021/07/01 10:09:29;;;;;;;16.10;10.70;;;;;;;;;;5047044;28;20051;-78
2021/07/01 10:12:18;;;;;;;16.20;11.00;;;;;;;;;;5064155;28;20036;-78
2021/07/01 10:15:05;;;;;;;14.85;10.82;;;;;;;;;;5055030;28;20047;-78
2021/07/01 10:18:16;;;;;;;16.02;11.20;;;;;;;;;;5042029;28;20047;-78
2021/07/01 10:21:01;;;;;;;16.05;10.57;;;;;;;;;;5054002;28;20144;-78
2021/07/01 10:23:49;;;;;;;16.40;11.45;;;;;;;;;;5056876;28;20042;-77
2021/07/01 10:26:38;;;;;;;16.92;11.65;;;;;;;;;;5063726;28;20086;-78
2021/07/01 10:29:23;;;;;;;15.52;11.15;;;;;;;;;;5039053;28;20032;-78
2021/07/01 10:32:09;;;;;;;17.40;11.55;;;;;;;;;;5069710;28;20036;-79
2021/07/01 10:34:54;;;;;;;16.58;11.05;;;;;;;;;;5056067;28;20064;-78
2021/07/01 10:37:39;;;;;;;17.95;11.27;;;;;;;;;;5041920;28;20114;-78
2021/07/01 10:40:24;;;;;;;15.07;11.23;;;;;;;;;;5054532;28;20085;-77
2021/07/01 10:43:08;;;;;;;15.15;11.25;;;;;;;;;;5069391;28;20513;-78
2021/07/01 10:45:54;;;;;;;15.57;11.10;;;;;;;;;;5057734;28;20082;-79
2021/07/01 10:48:39;;;;;;;15.32;11.35;;;;;;;;;;5034843;28;20085;-78
2021/07/01 10:51:25;;;;;;;16.65;11.85;;;;;;;;;;5055618;28;20047;-79
2021/07/01 10:54:11;;;;;;;17.70;12.15;;;;;;;;;;5059904;28;20148;-77
2021/07/01 10:56:56;;;;;;;16.58;11.43;;;;;;;;;;5049906;28;20060;-76
2021/07/01 10:59:50;;;;;;;18.65;12.00;;;;;;;;;;5047874;28;20120;-78
2021/07/01 11:02:35;;;;;;;21.20;12.45;;;;;;;;;;5045304;28;20097;-77
2021/07/01 11:05:20;;;;;;;17.00;12.20;;;;;;;;;;5062412;28;20537;-77
2021/07/01 11:08:05;;;;;;;16.33;11.13;;;;;;;;;;5061232;28;20039;-77
2021/07/01 11:10:49;;;;;;;17.80;11.80;;;;;;;;;;5062273;28;20128;-77
2021/07/01 11:13:37;;;;;;;17.63;12.07;;;;;;;;;;5047440;28;20043;-77
2021/07/01 11:16:22;;;;;;;18.25;12.30;;;;;;;;;;5060885;28;20086;-77
2021/07/01 11:19:07;;;;;;;16.38;11.60;;;;;;;;;;5058819;28;20040;-76
2021/07/01 11:21:52;;;;;;;20.42;12.77;;;;;;;;;;5046140;28;20059;-77
2021/07/01 11:24:44;;;;;;;18.20;12.30;;;;;;;;;;5061475;28;20117;-76
2021/07/01 11:27:29;;;;;;;20.85;12.30;;;;;;;;;;5059114;28;20047;-78
2021/07/01 11:30:26;;;;;;;17.60;11.73;;;;;;;;;;5061983;28;20055;-77
2021/07/01 11:33:12;;;;;;;18.98;12.18;;;;;;;;;;5045202;28;20408;-76
2021/07/01 11:36:09;;;;;;;16.88;11.63;;;;;;;;;;5052724;28;20075;-76
2021/07/01 11:38:54;;;;;;;16.85;11.95;;;;;;;;;;5064541;28;20059;-76
2021/07/01 11:41:39;;;;;;;15.48;11.60;;;;;;;;;;5055246;28;20123;-76
2021/07/01 11:44:23;;;;;;;16.55;10.95;;;;;;;;;;5064371;28;20097;-76
2021/07/01 11:47:09;;;;;;;14.05;11.02;;;;;;;;;;5050911;28;20036;-77
2021/07/01 11:49:53;;;;;;;16.23;11.45;;;;;;;;;;5064944;28;20066;-77
2021/07/01 11:52:38;;;;;;;13.95;11.02;;;;;;;;;;5049199;28;20044;-77
2021/07/01 11:55:23;;;;;;;15.93;11.70;;;;;;;;;;5051379;28;20502;-76
2021/07/01 11:58:09;;;;;;;16.05;11.52;;;;;;;;;;5065317;28;20801;-76
2021/07/01 12:00:54;;;;;;;16.58;11.85;;;;;;;;;;5065197;28;20036;-77
2021/07/01 12:03:39;;;;;;;15.75;11.23;;;;;;;;;;5064601;28;20051;-78
2021/07/01 12:06:34;;;;;;;14.35;11.52;;;;;;;;;;5064420;28;20044;-76
2021/07/01 12:09:19;;;;;;;15.27;11.30;;;;;;;;;;5063838;28;20082;-76
2021/07/01 12:12:03;;;;;;;16.48;11.35;;;;;;;;;;5051197;28;20078;-76
2021/07/01 12:15:07;;;;;;;13.95;11.48;;;;;;;;;;5064053;28;20039;-78
2021/07/01 12:17:56;;;;;;;13.88;11.02;;;;;;;;;;5064391;28;20047;-78
2021/07/01 12:20:45;;;;;;;19.02;11.27;;;;;;;;;;5044811;28;20094;-81
2021/07/01 12:23:30;;;;;;;19.73;10.95;;;;;;;;;;5054327;28;20055;-78
2021/07/01 12:26:33;;;;;;;18.00;11.50;;;;;;;;;;5063027;28;20043;-77
2021/07/01 12:29:20;;;;;;;22.77;11.43;;;;;;;;;;5065255;28;20119;-77
2021/07/01 12:32:24;;;;;;;21.92;11.68;;;;;;;;;;5050269;28;20048;-76
2021/07/01 12:35:27;;;;;;;24.45;11.48;;;;;;;;;;5065661;28;20565;-76
2021/07/01 12:38:12;;;;;;;20.88;10.55;;;;;;;;;;5064243;28;20137;-76
2021/07/01 12:40:58;;;;;;;16.80;10.93;;;;;;;;;;5064420;28;20066;-76
2021/07/01 12:43:43;;;;;;;17.77;11.18;;;;;;;;;;5062607;28;20690;-77
2021/07/01 12:46:40;;;;;;;18.20;11.48;;;;;;;;;;5063958;28;20117;-77
2021/07/01 12:49:25;;;;;;;18.83;10.65;;;;;;;;;;5063285;28;20392;-76
2021/07/01 12:52:10;;;;;;;19.08;11.45;;;;;;;;;;5056980;28;20093;-76
2021/07/01 12:54:55;;;;;;;16.48;10.90;;;;;;;;;;5043616;28;20447;-77
2021/07/01 12:57:40;;;;;;;16.52;10.55;;;;;;;;;;5063436;28;20114;-77
2021/07/01 13:00:24;;;;;;;16.77;11.00;;;;;;;;;;5062513;28;20059;-77
2021/07/01 13:03:15;;;;;;;16.00;11.00;;;;;;;;;;5044044;28;20405;-76
2021/07/01 13:05:59;;;;;;;18.02;11.10;;;;;;;;;;5044098;28;20121;-77
2021/07/01 13:08:43;;;;;;;16.20;11.60;;;;;;;;;;5057405;28;20117;-78
2021/07/01 13:11:28;;;;;;;17.42;10.63;;;;;;;;;;5050826;28;20038;-78
2021/07/01 13:14:16;;;;;;;17.65;10.80;;;;;;;;;;5061492;28;20752;-80
2021/07/01 13:17:04;;;;;;;18.35;10.80;;;;;;;;;;5070903;28;20458;-79
2021/07/01 13:19:51;;;;;;;15.18;11.10;;;;;;;;;;5042266;28;20573;-80
2021/07/01 13:22:39;;;;;;;19.00;11.63;;;;;;;;;;5063392;28;20089;-80
2021/07/01 13:25:25;;;;;;;16.10;10.50;;;;;;;;;;5063806;28;20066;-79
2021/07/01 13:28:10;;;;;;;15.70;10.80;;;;;;;;;;5049657;28;20110;-80
2021/07/01 13:30:54;;;;;;;17.00;11.38;;;;;;;;;;5063206;28;20043;-80
2021/07/01 13:33:39;;;;;;;17.85;12.45;;;;;;;;;;5070373;28;20036;-80
2021/07/01 13:36:28;;;;;;;17.02;12.05;;;;;;;;;;5048335;28;20051;-80
2021/07/01 13:39:28;;;;;;;18.65;12.77;;;;;;;;;;5058214;28;20067;-80
2021/07/01 13:42:29;;;;;;;20.05;13.40;;;;;;;;;;5056078;28;20039;-80
2021/07/01 13:45:15;;;;;;;20.83;12.90;;;;;;;;;;5056428;28;21502;-79
2021/07/01 13:48:04;;;;;;;16.35;11.48;;;;;;;;;;5041794;28;20090;-80
2021/07/01 13:50:49;;;;;;;19.65;12.85;;;;;;;;;;5056420;28;20047;-80
2021/07/01 13:53:35;;;;;;;18.58;13.13;;;;;;;;;;5041741;28;20039;-81
2021/07/01 13:56:19;;;;;;;17.75;12.48;;;;;;;;;;5055928;28;20298;-80
2021/07/01 13:59:08;;;;;;;17.60;12.00;;;;;;;;;;5055966;28;20594;-80
2021/07/01 14:01:52;;;;;;;18.15;13.02;;;;;;;;;;5056121;28;20047;-80
2021/07/01 14:04:43;;;;;;;17.23;12.13;;;;;;;;;;5061656;28;20085;-81
2021/07/01 14:07:29;;;;;;;18.92;12.15;;;;;;;;;;5064512;28;20129;-78
2021/07/01 14:10:14;;;;;;;17.90;12.25;;;;;;;;;;5053144;28;20137;-77
2021/07/01 14:12:59;;;;;;;15.98;12.00;;;;;;;;;;5061210;28;20039;-75
2021/07/01 14:15:43;;;;;;;18.85;11.77;;;;;;;;;;5040626;28;20109;-77
2021/07/01 14:18:28;;;;;;;20.73;12.48;;;;;;;;;;5062748;28;20419;-74
2021/07/01 14:21:13;;;;;;;37.85;14.18;;;;;;;;;;5062330;28;20043;-76
2021/07/01 14:24:07;;;;;;;35.33;13.50;;;;;;;;;;5068994;28;20137;-76
2021/07/01 14:26:56;;;;;;;35.03;13.85;;;;;;;;;;5082677;28;20043;-76
2021/07/01 14:29:44;;;;;;;51.75;15.75;;;;;;;;;;5054658;28;20044;-76
2021/07/01 14:32:35;;;;;;;53.88;16.17;;;;;;;;;;5058220;28;20047;-76
2021/07/01 14:35:29;;;;;;;55.58;15.40;;;;;;;;;;5056842;28;20064;-76
2021/07/01 14:38:15;;;;;;;127.82;21.90;;;;;;;;;;5056896;28;20533;-76
2021/07/01 14:41:00;;;;;;;80.50;17.65;;;;;;;;;;5061992;28;20043;-77
2021/07/01 14:43:45;;;;;;;195.82;26.98;;;;;;;;;;5061654;28;20043;-76
2021/07/01 14:46:36;;;;;;;115.63;22.00;;;;;;;;;;5062497;28;20043;-77
2021/07/01 14:49:31;;;;;;;119.80;22.65;;;;;;;;;;5042665;28;20082;-78
2021/07/01 14:52:21;;;;;;;96.18;21.27;;;;;;;;;;5061628;28;20043;-77
2021/07/01 14:55:14;;;;;;;92.50;20.08;;;;;;;;;;5048684;28;20043;-78
2021/07/01 14:58:03;;;;;;;83.38;19.35;;;;;;;;;;5047483;28;20048;-78
2021/07/01 15:00:56;;;;;;;89.95;19.63;;;;;;;;;;5060962;28;20114;-77
2021/07/01 15:03:40;;;;;;;89.82;19.35;;;;;;;;;;5061271;28;20043;-78
2021/07/01 15:06:25;;;;;;;89.20;20.40;;;;;;;;;;5050098;28;20066;-75
2021/07/01 15:09:16;;;;;;;89.60;20.13;;;;;;;;;;5067458;28;20771;-78
2021/07/01 15:12:01;;;;;;;88.57;20.02;;;;;;;;;;5047119;28;20044;-77
2021/07/01 15:14:46;;;;;;;90.03;21.83;;;;;;;;;;5067227;28;20051;-78
2021/07/01 15:17:32;;;;;;;92.95;20.35;;;;;;;;;;5082190;28;20104;-78
2021/07/01 15:20:17;;;;;;;80.90;18.65;;;;;;;;;;5051059;28;20501;-78
2021/07/01 15:23:02;;;;;;;82.43;18.65;;;;;;;;;;5066231;28;20522;-77
2021/07/01 15:25:47;;;;;;;60.83;17.10;;;;;;;;;;5066030;28;20146;-78
2021/07/01 15:28:32;;;;;;;68.88;17.65;;;;;;;;;;5065889;28;20456;-78
2021/07/01 15:31:16;;;;;;;70.13;17.45;;;;;;;;;;5073358;28;20032;-79
2021/07/01 15:34:01;;;;;;;70.05;17.92;;;;;;;;;;5067660;28;20036;-76
2021/07/01 15:36:45;;;;;;;77.68;19.42;;;;;;;;;;5081827;28;20039;-76
2021/07/01 15:39:30;;;;;;;83.47;17.35;;;;;;;;;;5064539;28;20075;-75
2021/07/01 15:42:15;;;;;;;58.25;17.00;;;;;;;;;;5066055;28;20174;-82
2021/07/01 15:44:59;;;;;;;77.55;17.92;;;;;;;;;;5047119;28;20099;-77
2021/07/01 15:47:48;;;;;;;71.78;17.08;;;;;;;;;;5072714;28;20143;-78
2021/07/01 15:50:33;;;;;;;56.22;16.27;;;;;;;;;;5051751;28;20047;-76
2021/07/01 15:53:19;;;;;;;52.75;15.73;;;;;;;;;;5068212;28;20046;-76
2021/07/01 15:56:05;;;;;;;69.35;16.48;;;;;;;;;;5061782;28;20283;-77
2021/07/01 15:58:49;;;;;;;59.67;16.13;;;;;;;;;;5032123;28;20114;-76
2021/07/01 16:01:33;;;;;;;51.58;15.52;;;;;;;;;;5065068;28;20043;-76
2021/07/01 16:04:18;;;;;;;45.45;14.45;;;;;;;;;;5081982;28;20043;-77
2021/07/01 16:07:03;;;;;;;59.55;16.20;;;;;;;;;;5060620;28;20060;-76